sensor_id;sensor_type;location;lat;lon;timestamp;P1;durP1;ratioP1;P2;durP2;ratioP2
795;SDS011;381;48.770;9.188;2022-11-20T00:04:39;14.90;;;13.70;;
795;SDS011;381;48.770;9.188;2022-11-20T00:09:41;15.07;;;13.87;;
795;SDS011;381;48.770;9.188;2022-11-20T00:14:45;16.37;;;14.97;;
795;SDS011;381;48.770;9.188;2022-11-20T00:19:47;16.20;;;14.80;;
795;SDS011;381;48.770;9.188;2022-11-20T00:24:49;14.47;;;13.27;;
795;SDS011;381;48.770;9.188;2022-11-20T00:29:52;12.30;;;11.40;;
795;SDS011;381;48.770;9.188;2022-11-20T00:34:54;8.73;;;8.17;;
795;SDS011;381;48.770;9.188;2022-11-20T00:39:56;9.23;;;8.63;;
795;SDS011;381;48.770;9.188;2022-11-20T00:45:00;13.17;;;12.20;;
795;SDS011;381;48.770;9.188;2022-11-20T00:50:02;8.17;;;7.67;;
795;SDS011;381;48.770;9.188;2022-11-20T00:55:05;7.57;;;7.07;;
795;SDS011;381;48.770;9.188;2022-11-20T01:00:09;7.53;;;7.03;;
795;SDS011;381;48.770;9.188;2022-11-20T01:05:12;9.53;;;8.73;;
795;SDS011;381;48.770;9.188;2022-11-20T01:10:14;6.87;;;6.40;;
795;SDS011;381;48.770;9.188;2022-11-20T01:15:17;9.23;;;8.30;;
795;SDS011;381;48.770;9.188;2022-11-20T01:20:19;5.97;;;5.67;;
795;SDS011;381;48.770;9.188;2022-11-20T01:25:21;6.37;;;5.77;;
795;SDS011;381;48.770;9.188;2022-11-20T01:30:25;8.00;;;7.30;;
795;SDS011;381;48.770;9.188;2022-11-20T01:35:27;6.50;;;5.90;;
795;SDS011;381;48.770;9.188;2022-11-20T01:40:29;5.67;;;5.27;;
795;SDS011;381;48.770;9.188;2022-11-20T01:50:58;5.83;;;5.43;;
795;SDS011;381;48.770;9.188;2022-11-20T01:56:02;6.80;;;6.30;;
795;SDS011;381;48.770;9.188;2022-11-20T02:01:08;6.53;;;6.03;;
795;SDS011;381;48.770;9.188;2022-11-20T02:06:12;5.70;;;5.40;;
795;SDS011;381;48.770;9.188;2022-11-20T02:11:18;6.43;;;5.93;;
795;SDS011;381;48.770;9.188;2022-11-20T02:16:23;6.60;;;6.10;;
795;SDS011;381;48.770;9.188;2022-11-20T02:21:28;5.80;;;5.50;;
795;SDS011;381;48.770;9.188;2022-11-20T02:26:42;6.73;;;6.07;;
795;SDS011;381;48.770;9.188;2022-11-20T02:31:50;6.30;;;5.90;;
795;SDS011;381;48.770;9.188;2022-11-20T02:36:55;5.63;;;5.33;;
795;SDS011;381;48.770;9.188;2022-11-20T02:42:00;6.53;;;5.93;;
795;SDS011;381;48.770;9.188;2022-11-20T02:47:03;6.70;;;6.30;;
795;SDS011;381;48.770;9.188;2022-11-20T02:52:05;6.70;;;6.20;;
795;SDS011;381;48.770;9.188;2022-11-20T02:57:08;6.80;;;6.40;;
795;SDS011;381;48.770;9.188;2022-11-20T03:02:11;7.17;;;6.77;;
795;SDS011;381;48.770;9.188;2022-11-20T03:07:13;6.77;;;6.37;;
795;SDS011;381;48.770;9.188;2022-11-20T03:12:16;7.07;;;6.57;;
795;SDS011;381;48.770;9.188;2022-11-20T03:17:18;6.87;;;6.37;;
795;SDS011;381;48.770;9.188;2022-11-20T03:22:20;7.10;;;6.70;;
795;SDS011;381;48.770;9.188;2022-11-20T03:27:24;6.57;;;6.13;;
795;SDS011;381;48.770;9.188;2022-11-20T03:32:26;7.00;;;6.50;;
795;SDS011;381;48.770;9.188;2022-11-20T03:37:28;7.80;;;7.20;;
795;SDS011;381;48.770;9.188;2022-11-20T03:42:31;6.43;;;6.03;;
795;SDS011;381;48.770;9.188;2022-11-20T03:47:46;7.60;;;7.00;;
795;SDS011;381;48.770;9.188;2022-11-20T03:52:48;6.97;;;6.50;;
795;SDS011;381;48.770;9.188;2022-11-20T03:57:51;6.60;;;6.20;;
795;SDS011;381;48.770;9.188;2022-11-20T04:02:53;6.67;;;6.17;;
795;SDS011;381;48.770;9.188;2022-11-20T04:07:58;6.60;;;6.00;;
795;SDS011;381;48.770;9.188;2022-11-20T04:13:02;9.60;;;8.73;;
795;SDS011;381;48.770;9.188;2022-11-20T04:18:04;6.70;;;6.03;;
795;SDS011;381;48.770;9.188;2022-11-20T04:23:06;7.30;;;6.70;;
795;SDS011;381;48.770;9.188;2022-11-20T04:28:09;6.47;;;6.07;;
795;SDS011;381;48.770;9.188;2022-11-20T04:33:11;7.43;;;6.83;;
795;SDS011;381;48.770;9.188;2022-11-20T04:38:13;7.10;;;6.63;;
795;SDS011;381;48.770;9.188;2022-11-20T04:43:17;6.20;;;5.70;;
795;SDS011;381;48.770;9.188;2022-11-20T04:48:19;6.37;;;5.97;;
795;SDS011;381;48.770;9.188;2022-11-20T04:53:21;6.40;;;6.00;;
795;SDS011;381;48.770;9.188;2022-11-20T04:58:25;7.37;;;6.77;;
795;SDS011;381;48.770;9.188;2022-11-20T05:03:27;6.73;;;6.33;;
795;SDS011;381;48.770;9.188;2022-11-20T05:08:30;6.93;;;6.53;;
795;SDS011;381;48.770;9.188;2022-11-20T05:13:34;6.00;;;5.70;;
795;SDS011;381;48.770;9.188;2022-11-20T05:18:37;7.63;;;7.13;;
795;SDS011;381;48.770;9.188;2022-11-20T05:23:40;7.43;;;6.80;;
795;SDS011;381;48.770;9.188;2022-11-20T05:28:44;6.57;;;6.17;;
795;SDS011;381;48.770;9.188;2022-11-20T05:33:47;6.83;;;6.33;;
795;SDS011;381;48.770;9.188;2022-11-20T05:38:49;7.23;;;6.63;;
795;SDS011;381;48.770;9.188;2022-11-20T05:43:52;6.20;;;5.80;;
795;SDS011;381;48.770;9.188;2022-11-20T05:48:55;6.60;;;6.10;;
795;SDS011;381;48.770;9.188;2022-11-20T05:53:57;5.67;;;5.27;;
795;SDS011;381;48.770;9.188;2022-11-20T05:59:01;5.83;;;5.43;;
795;SDS011;381;48.770;9.188;2022-11-20T06:04:03;5.73;;;5.43;;
795;SDS011;381;48.770;9.188;2022-11-20T06:09:05;5.70;;;5.40;;
795;SDS011;381;48.770;9.188;2022-11-20T06:14:09;5.33;;;5.03;;
795;SDS011;381;48.770;9.188;2022-11-20T06:19:11;5.90;;;5.50;;
795;SDS011;381;48.770;9.188;2022-11-20T06:24:13;5.50;;;5.20;;
795;SDS011;381;48.770;9.188;2022-11-20T06:29:16;5.40;;;5.10;;
795;SDS011;381;48.770;9.188;2022-11-20T06:34:18;5.80;;;5.40;;
795;SDS011;381;48.770;9.188;2022-11-20T06:39:20;5.30;;;5.00;;
795;SDS011;381;48.770;9.188;2022-11-20T06:44:24;5.80;;;5.30;;
795;SDS011;381;48.770;9.188;2022-11-20T06:49:26;5.10;;;4.77;;
795;SDS011;381;48.770;9.188;2022-11-20T06:54:28;4.63;;;4.33;;
795;SDS011;381;48.770;9.188;2022-11-20T06:59:31;11.63;;;8.60;;
795;SDS011;381;48.770;9.188;2022-11-20T07:04:33;5.43;;;5.13;;
795;SDS011;381;48.770;9.188;2022-11-20T07:09:35;5.70;;;5.37;;
795;SDS011;381;48.770;9.188;2022-11-20T07:14:39;6.27;;;5.63;;
795;SDS011;381;48.770;9.188;2022-11-20T07:19:41;5.10;;;4.77;;
795;SDS011;381;48.770;9.188;2022-11-20T07:24:43;6.30;;;5.90;;
795;SDS011;381;48.770;9.188;2022-11-20T07:29:47;7.30;;;6.60;;
795;SDS011;381;48.770;9.188;2022-11-20T07:34:49;6.10;;;5.70;;
795;SDS011;381;48.770;9.188;2022-11-20T07:39:51;6.07;;;5.63;;
795;SDS011;381;48.770;9.188;2022-11-20T07:44:54;4.93;;;4.63;;
795;SDS011;381;48.770;9.188;2022-11-20T07:49:56;6.10;;;5.60;;
795;SDS011;381;48.770;9.188;2022-11-20T07:54:58;3.90;;;3.70;;
795;SDS011;381;48.770;9.188;2022-11-20T08:00:02;4.13;;;3.90;;
795;SDS011;381;48.770;9.188;2022-11-20T08:05:12;4.30;;;4.00;;
795;SDS011;381;48.770;9.188;2022-11-20T08:10:15;5.50;;;5.00;;
795;SDS011;381;48.770;9.188;2022-11-20T08:15:18;5.20;;;4.90;;
795;SDS011;381;48.770;9.188;2022-11-20T08:20:21;5.27;;;5.00;;
795;SDS011;381;48.770;9.188;2022-11-20T08:25:23;4.83;;;4.53;;
795;SDS011;381;48.770;9.188;2022-11-20T08:30:26;3.40;;;3.20;;
795;SDS011;381;48.770;9.188;2022-11-20T08:35:32;5.10;;;4.77;;
795;SDS011;381;48.770;9.188;2022-11-20T08:40:35;4.37;;;4.17;;
795;SDS011;381;48.770;9.188;2022-11-20T08:45:38;4.13;;;3.93;;
795;SDS011;381;48.770;9.188;2022-11-20T08:50:40;4.30;;;4.10;;
795;SDS011;381;48.770;9.188;2022-11-20T08:55:42;4.17;;;3.87;;
795;SDS011;381;48.770;9.188;2022-11-20T09:00:46;4.00;;;3.80;;
795;SDS011;381;48.770;9.188;2022-11-20T09:05:48;3.67;;;3.57;;
795;SDS011;381;48.770;9.188;2022-11-20T09:10:51;4.43;;;4.23;;
795;SDS011;381;48.770;9.188;2022-11-20T09:15:56;5.50;;;3.77;;
795;SDS011;381;48.770;9.188;2022-11-20T09:21:00;4.03;;;3.83;;
795;SDS011;381;48.770;9.188;2022-11-20T09:26:04;4.23;;;4.03;;
795;SDS011;381;48.770;9.188;2022-11-20T09:31:09;3.50;;;3.40;;
795;SDS011;381;48.770;9.188;2022-11-20T09:36:15;3.50;;;3.23;;
795;SDS011;381;48.770;9.188;2022-11-20T09:41:25;3.70;;;3.50;;
795;SDS011;381;48.770;9.188;2022-11-20T09:46:44;3.50;;;3.30;;
795;SDS011;381;48.770;9.188;2022-11-20T09:51:57;3.10;;;3.00;;
795;SDS011;381;48.770;9.188;2022-11-20T09:57:00;3.00;;;2.90;;
795;SDS011;381;48.770;9.188;2022-11-20T10:02:15;3.00;;;2.90;;
795;SDS011;381;48.770;9.188;2022-11-20T10:07:20;3.20;;;3.10;;
795;SDS011;381;48.770;9.188;2022-11-20T10:12:27;2.90;;;2.70;;
795;SDS011;381;48.770;9.188;2022-11-20T10:17:46;3.10;;;3.00;;
795;SDS011;381;48.770;9.188;2022-11-20T10:23:06;3.60;;;3.40;;
795;SDS011;381;48.770;9.188;2022-11-20T10:28:25;4.27;;;3.97;;
795;SDS011;381;48.770;9.188;2022-11-20T10:33:38;4.80;;;4.60;;
795;SDS011;381;48.770;9.188;2022-11-20T10:38:43;4.13;;;4.03;;
795;SDS011;381;48.770;9.188;2022-11-20T10:43:50;4.40;;;4.20;;
795;SDS011;381;48.770;9.188;2022-11-20T10:48:57;4.73;;;4.47;;
795;SDS011;381;48.770;9.188;2022-11-20T10:54:02;5.30;;;5.00;;
795;SDS011;381;48.770;9.188;2022-11-20T10:59:28;5.60;;;5.40;;
795;SDS011;381;48.770;9.188;2022-11-20T11:04:45;5.50;;;5.20;;
795;SDS011;381;48.770;9.188;2022-11-20T11:09:49;6.00;;;5.70;;
795;SDS011;381;48.770;9.188;2022-11-20T11:14:54;4.80;;;4.60;;
795;SDS011;381;48.770;9.188;2022-11-20T11:20:03;6.80;;;6.50;;
795;SDS011;381;48.770;9.188;2022-11-20T11:25:07;6.90;;;6.60;;
795;SDS011;381;48.770;9.188;2022-11-20T11:30:20;7.27;;;6.80;;
795;SDS011;381;48.770;9.188;2022-11-20T11:35:24;14.73;;;13.33;;
795;SDS011;381;48.770;9.188;2022-11-20T11:40:28;8.43;;;7.83;;
795;SDS011;381;48.770;9.188;2022-11-20T11:45:34;7.90;;;7.47;;
795;SDS011;381;48.770;9.188;2022-11-20T11:50:38;7.00;;;6.70;;
795;SDS011;381;48.770;9.188;2022-11-20T11:55:51;7.80;;;7.40;;
795;SDS011;381;48.770;9.188;2022-11-20T12:00:58;7.17;;;6.77;;
795;SDS011;381;48.770;9.188;2022-11-20T12:06:10;9.00;;;8.40;;
795;SDS011;381;48.770;9.188;2022-11-20T12:11:16;6.57;;;6.00;;
795;SDS011;381;48.770;9.188;2022-11-20T12:16:23;6.63;;;6.33;;
795;SDS011;381;48.770;9.188;2022-11-20T12:21:28;5.67;;;5.37;;
795;SDS011;381;48.770;9.188;2022-11-20T12:26:45;6.97;;;6.57;;
795;SDS011;381;48.770;9.188;2022-11-20T12:32:09;7.67;;;6.90;;
795;SDS011;381;48.770;9.188;2022-11-20T12:37:35;6.00;;;5.70;;
795;SDS011;381;48.770;9.188;2022-11-20T12:42:49;4.90;;;4.60;;
795;SDS011;381;48.770;9.188;2022-11-20T12:53:47;4.93;;;4.73;;
795;SDS011;381;48.770;9.188;2022-11-20T12:59:02;9.67;;;8.77;;
795;SDS011;381;48.770;9.188;2022-11-20T13:04:32;4.90;;;4.00;;
795;SDS011;381;48.770;9.188;2022-11-20T13:09:54;3.03;;;2.90;;
795;SDS011;381;48.770;9.188;2022-11-20T13:14:59;3.80;;;3.50;;
795;SDS011;381;48.770;9.188;2022-11-20T13:20:12;4.97;;;4.67;;
795;SDS011;381;48.770;9.188;2022-11-20T13:30:48;4.10;;;3.83;;
795;SDS011;381;48.770;9.188;2022-11-20T13:35:55;4.10;;;4.00;;
795;SDS011;381;48.770;9.188;2022-11-20T13:41:01;4.00;;;3.70;;
795;SDS011;381;48.770;9.188;2022-11-20T13:46:23;4.47;;;4.07;;
795;SDS011;381;48.770;9.188;2022-11-20T13:51:37;4.57;;;4.37;;
795;SDS011;381;48.770;9.188;2022-11-20T13:56:48;4.50;;;4.20;;
795;SDS011;381;48.770;9.188;2022-11-20T14:01:59;4.17;;;3.87;;
795;SDS011;381;48.770;9.188;2022-11-20T14:07:02;4.50;;;4.20;;
795;SDS011;381;48.770;9.188;2022-11-20T14:12:14;3.93;;;3.73;;
795;SDS011;381;48.770;9.188;2022-11-20T14:17:19;3.83;;;3.63;;
795;SDS011;381;48.770;9.188;2022-11-20T14:22:24;4.03;;;3.83;;
795;SDS011;381;48.770;9.188;2022-11-20T14:27:28;5.17;;;4.77;;
795;SDS011;381;48.770;9.188;2022-11-20T14:32:34;4.13;;;3.93;;
795;SDS011;381;48.770;9.188;2022-11-20T14:37:37;5.13;;;4.63;;
795;SDS011;381;48.770;9.188;2022-11-20T14:42:44;5.37;;;5.00;;
795;SDS011;381;48.770;9.188;2022-11-20T14:47:46;4.80;;;4.50;;
795;SDS011;381;48.770;9.188;2022-11-20T14:52:50;4.87;;;4.17;;
795;SDS011;381;48.770;9.188;2022-11-20T14:57:58;4.70;;;4.30;;
795;SDS011;381;48.770;9.188;2022-11-20T15:03:01;3.70;;;3.50;;
795;SDS011;381;48.770;9.188;2022-11-20T15:08:05;4.60;;;4.30;;
795;SDS011;381;48.770;9.188;2022-11-20T15:13:12;4.73;;;4.43;;
795;SDS011;381;48.770;9.188;2022-11-20T15:18:16;4.97;;;4.67;;
795;SDS011;381;48.770;9.188;2022-11-20T15:23:20;4.97;;;4.67;;
795;SDS011;381;48.770;9.188;2022-11-20T15:28:25;4.60;;;4.30;;
795;SDS011;381;48.770;9.188;2022-11-20T15:33:31;4.27;;;3.87;;
795;SDS011;381;48.770;9.188;2022-11-20T15:38:34;4.60;;;4.33;;
795;SDS011;381;48.770;9.188;2022-11-20T15:43:38;4.27;;;4.07;;
795;SDS011;381;48.770;9.188;2022-11-20T15:48:41;6.40;;;5.90;;
795;SDS011;381;48.770;9.188;2022-11-20T15:53:45;5.77;;;5.37;;
795;SDS011;381;48.770;9.188;2022-11-20T15:58:48;5.00;;;4.60;;
795;SDS011;381;48.770;9.188;2022-11-20T16:03:50;4.63;;;4.33;;
795;SDS011;381;48.770;9.188;2022-11-20T16:08:56;5.67;;;5.17;;
795;SDS011;381;48.770;9.188;2022-11-20T16:14:00;4.70;;;4.30;;
795;SDS011;381;48.770;9.188;2022-11-20T16:19:20;4.90;;;4.60;;
795;SDS011;381;48.770;9.188;2022-11-20T16:24:22;6.10;;;5.57;;
795;SDS011;381;48.770;9.188;2022-11-20T16:29:25;7.20;;;6.60;;
795;SDS011;381;48.770;9.188;2022-11-20T16:34:27;5.20;;;4.90;;
795;SDS011;381;48.770;9.188;2022-11-20T16:39:29;5.40;;;5.00;;
795;SDS011;381;48.770;9.188;2022-11-20T16:44:33;4.63;;;4.33;;
795;SDS011;381;48.770;9.188;2022-11-20T16:49:35;6.07;;;5.67;;
795;SDS011;381;48.770;9.188;2022-11-20T16:54:37;7.70;;;7.00;;
795;SDS011;381;48.770;9.188;2022-11-20T16:59:40;5.20;;;4.90;;
795;SDS011;381;48.770;9.188;2022-11-20T17:04:42;4.17;;;3.97;;
795;SDS011;381;48.770;9.188;2022-11-20T17:09:44;5.30;;;4.77;;
795;SDS011;381;48.770;9.188;2022-11-20T17:14:48;6.03;;;5.47;;
795;SDS011;381;48.770;9.188;2022-11-20T17:19:50;5.03;;;4.63;;
795;SDS011;381;48.770;9.188;2022-11-20T17:24:52;4.90;;;4.60;;
795;SDS011;381;48.770;9.188;2022-11-20T17:29:58;6.10;;;5.60;;
795;SDS011;381;48.770;9.188;2022-11-20T17:35:00;5.50;;;4.93;;
795;SDS011;381;48.770;9.188;2022-11-20T17:40:03;6.40;;;5.80;;
795;SDS011;381;48.770;9.188;2022-11-20T17:45:07;4.27;;;3.97;;
795;SDS011;381;48.770;9.188;2022-11-20T17:50:09;5.60;;;5.20;;
795;SDS011;381;48.770;9.188;2022-11-20T17:55:11;4.73;;;4.43;;
795;SDS011;381;48.770;9.188;2022-11-20T18:00:15;5.13;;;4.77;;
795;SDS011;381;48.770;9.188;2022-11-20T18:05:17;4.60;;;4.30;;
795;SDS011;381;48.770;9.188;2022-11-20T18:10:19;4.73;;;4.50;;
795;SDS011;381;48.770;9.188;2022-11-20T18:15:23;4.90;;;4.53;;
795;SDS011;381;48.770;9.188;2022-11-20T18:20:25;5.10;;;4.70;;
795;SDS011;381;48.770;9.188;2022-11-20T18:25:27;5.80;;;5.40;;
795;SDS011;381;48.770;9.188;2022-11-20T18:30:30;4.37;;;4.07;;
795;SDS011;381;48.770;9.188;2022-11-20T18:35:32;5.00;;;4.60;;
795;SDS011;381;48.770;9.188;2022-11-20T18:40:35;5.77;;;5.27;;
795;SDS011;381;48.770;9.188;2022-11-20T18:45:38;5.63;;;5.13;;
795;SDS011;381;48.770;9.188;2022-11-20T18:50:40;6.43;;;6.03;;
795;SDS011;381;48.770;9.188;2022-11-20T18:55:42;4.97;;;4.40;;
795;SDS011;381;48.770;9.188;2022-11-20T19:00:46;5.27;;;4.90;;
795;SDS011;381;48.770;9.188;2022-11-20T19:05:48;5.33;;;4.93;;
795;SDS011;381;48.770;9.188;2022-11-20T19:10:50;6.17;;;5.70;;
795;SDS011;381;48.770;9.188;2022-11-20T19:15:53;5.67;;;5.37;;
795;SDS011;381;48.770;9.188;2022-11-20T19:20:55;5.80;;;5.40;;
795;SDS011;381;48.770;9.188;2022-11-20T19:25:57;5.30;;;5.00;;
795;SDS011;381;48.770;9.188;2022-11-20T19:31:02;4.70;;;4.40;;
795;SDS011;381;48.770;9.188;2022-11-20T19:36:08;4.47;;;4.27;;
795;SDS011;381;48.770;9.188;2022-11-20T19:41:12;4.77;;;4.57;;
795;SDS011;381;48.770;9.188;2022-11-20T19:46:17;4.20;;;4.00;;
795;SDS011;381;48.770;9.188;2022-11-20T19:51:21;4.43;;;4.23;;
795;SDS011;381;48.770;9.188;2022-11-20T19:56:25;4.70;;;4.40;;
795;SDS011;381;48.770;9.188;2022-11-20T20:01:30;4.37;;;4.17;;
795;SDS011;381;48.770;9.188;2022-11-20T20:06:33;4.40;;;4.13;;
795;SDS011;381;48.770;9.188;2022-11-20T20:11:37;7.40;;;6.80;;
795;SDS011;381;48.770;9.188;2022-11-20T20:16:42;4.43;;;4.23;;
795;SDS011;381;48.770;9.188;2022-11-20T20:21:44;3.67;;;3.57;;
795;SDS011;381;48.770;9.188;2022-11-20T20:26:47;4.27;;;4.07;;
795;SDS011;381;48.770;9.188;2022-11-20T20:31:50;4.33;;;4.13;;
795;SDS011;381;48.770;9.188;2022-11-20T20:36:52;3.57;;;3.47;;
795;SDS011;381;48.770;9.188;2022-11-20T20:41:57;4.10;;;4.00;;
795;SDS011;381;48.770;9.188;2022-11-20T20:47:00;4.10;;;3.80;;
795;SDS011;381;48.770;9.188;2022-11-20T20:52:02;3.53;;;3.43;;
795;SDS011;381;48.770;9.188;2022-11-20T20:57:07;3.50;;;3.40;;
795;SDS011;381;48.770;9.188;2022-11-20T21:02:10;4.00;;;3.90;;
795;SDS011;381;48.770;9.188;2022-11-20T21:07:13;3.47;;;3.37;;
795;SDS011;381;48.770;9.188;2022-11-20T21:12:15;3.40;;;3.30;;
795;SDS011;381;48.770;9.188;2022-11-20T21:17:18;3.73;;;3.63;;
795;SDS011;381;48.770;9.188;2022-11-20T21:22:20;3.83;;;3.73;;
795;SDS011;381;48.770;9.188;2022-11-20T21:27:22;3.70;;;3.60;;
795;SDS011;381;48.770;9.188;2022-11-20T21:32:26;4.30;;;3.97;;
795;SDS011;381;48.770;9.188;2022-11-20T21:37:28;3.30;;;3.20;;
795;SDS011;381;48.770;9.188;2022-11-20T21:42:30;3.83;;;3.63;;
795;SDS011;381;48.770;9.188;2022-11-20T21:47:33;3.97;;;3.80;;
795;SDS011;381;48.770;9.188;2022-11-20T21:52:35;3.50;;;3.40;;
795;SDS011;381;48.770;9.188;2022-11-20T21:57:37;4.20;;;3.97;;
795;SDS011;381;48.770;9.188;2022-11-20T22:02:41;4.20;;;4.00;;
795;SDS011;381;48.770;9.188;2022-11-20T22:07:43;4.20;;;4.10;;
795;SDS011;381;48.770;9.188;2022-11-20T22:12:45;4.00;;;3.80;;
795;SDS011;381;48.770;9.188;2022-11-20T22:17:49;4.30;;;4.10;;
795;SDS011;381;48.770;9.188;2022-11-20T22:23:08;4.20;;;4.00;;
795;SDS011;381;48.770;9.188;2022-11-20T22:28:10;4.00;;;3.80;;
795;SDS011;381;48.770;9.188;2022-11-20T22:33:13;3.80;;;3.60;;
795;SDS011;381;48.770;9.188;2022-11-20T22:38:16;3.57;;;3.47;;
795;SDS011;381;48.770;9.188;2022-11-20T22:43:18;4.23;;;4.13;;
795;SDS011;381;48.770;9.188;2022-11-20T22:48:21;4.40;;;4.20;;
795;SDS011;381;48.770;9.188;2022-11-20T22:53:24;3.77;;;3.67;;
795;SDS011;381;48.770;9.188;2022-11-20T22:58:26;3.80;;;3.70;;
795;SDS011;381;48.770;9.188;2022-11-20T23:03:30;3.30;;;3.20;;
795;SDS011;381;48.770;9.188;2022-11-20T23:08:32;3.50;;;3.30;;
795;SDS011;381;48.770;9.188;2022-11-20T23:13:35;3.53;;;3.43;;
795;SDS011;381;48.770;9.188;2022-11-20T23:18:39;3.20;;;3.10;;
795;SDS011;381;48.770;9.188;2022-11-20T23:23:43;3.10;;;3.00;;
795;SDS011;381;48.770;9.188;2022-11-20T23:28:48;3.07;;;2.90;;
795;SDS011;381;48.770;9.188;2022-11-20T23:33:52;3.23;;;3.13;;
795;SDS011;381;48.770;9.188;2022-11-20T23:38:54;4.00;;;3.80;;
795;SDS011;381;48.770;9.188;2022-11-20T23:43:56;3.20;;;3.10;;
795;SDS011;381;48.770;9.188;2022-11-20T23:49:00;3.80;;;3.50;;
795;SDS011;381;48.770;9.188;2022-11-20T23:54:03;3.10;;;3.00;;
795;SDS011;381;48.770;9.188;2022-11-20T23:59:05;3.67;;;3.40;;
